sensor_id;sensor_type;location;lat;lon;timestamp;P1;durP1;ratioP1;P2;durP2;ratioP2
40537;SDS011;27925;41.874;12.526;2023-02-28T00:01:23;6.13;;;3.67;;
40537;SDS011;27925;41.874;12.526;2023-02-28T00:03:49;5.47;;;3.50;;
40537;SDS011;27925;41.874;12.526;2023-02-28T00:06:15;5.55;;;3.70;;
40537;SDS011;27925;41.874;12.526;2023-02-28T00:08:41;7.85;;;3.75;;
40537;SDS011;27925;41.874;12.526;2023-02-28T00:11:09;8.07;;;3.38;;
40537;SDS011;27925;41.874;12.526;2023-02-28T00:13:37;5.95;;;3.78;;
40537;SDS011;27925;41.874;12.526;2023-02-28T00:16:06;5.53;;;3.42;;
40537;SDS011;27925;41.874;12.526;2023-02-28T00:18:34;6.03;;;3.35;;
40537;SDS011;27925;41.874;12.526;2023-02-28T00:21:00;5.40;;;3.65;;
40537;SDS011;27925;41.874;12.526;2023-02-28T00:23:26;6.45;;;3.50;;
40537;SDS011;27925;41.874;12.526;2023-02-28T00:25:52;3.95;;;2.75;;
40537;SDS011;27925;41.874;12.526;2023-02-28T00:28:18;5.93;;;3.28;;
40537;SDS011;27925;41.874;12.526;2023-02-28T00:30:44;5.95;;;3.60;;
40537;SDS011;27925;41.874;12.526;2023-02-28T00:39:54;6.03;;;3.83;;
40537;SDS011;27925;41.874;12.526;2023-02-28T00:42:19;5.60;;;3.60;;
40537;SDS011;27925;41.874;12.526;2023-02-28T00:44:45;5.03;;;3.03;;
40537;SDS011;27925;41.874;12.526;2023-02-28T00:47:11;4.85;;;2.90;;
40537;SDS011;27925;41.874;12.526;2023-02-28T00:49:36;8.27;;;3.60;;
40537;SDS011;27925;41.874;12.526;2023-02-28T00:52:02;5.13;;;3.00;;
40537;SDS011;27925;41.874;12.526;2023-02-28T00:54:28;5.68;;;3.47;;
40537;SDS011;27925;41.874;12.526;2023-02-28T00:56:54;7.72;;;3.15;;
40537;SDS011;27925;41.874;12.526;2023-02-28T00:59:19;5.40;;;3.38;;
40537;SDS011;27925;41.874;12.526;2023-02-28T01:01:46;5.88;;;3.38;;
40537;SDS011;27925;41.874;12.526;2023-02-28T01:04:12;5.40;;;3.22;;
40537;SDS011;27925;41.874;12.526;2023-02-28T01:06:38;5.15;;;3.20;;
40537;SDS011;27925;41.874;12.526;2023-02-28T01:09:05;5.45;;;3.22;;
40537;SDS011;27925;41.874;12.526;2023-02-28T01:11:31;5.72;;;3.17;;
40537;SDS011;27925;41.874;12.526;2023-02-28T01:13:58;5.63;;;3.35;;
40537;SDS011;27925;41.874;12.526;2023-02-28T01:16:24;7.20;;;3.30;;
40537;SDS011;27925;41.874;12.526;2023-02-28T01:18:50;5.90;;;3.30;;
40537;SDS011;27925;41.874;12.526;2023-02-28T01:21:16;6.22;;;3.65;;
40537;SDS011;27925;41.874;12.526;2023-02-28T01:23:44;5.03;;;3.35;;
40537;SDS011;27925;41.874;12.526;2023-02-28T01:26:12;4.90;;;3.05;;
40537;SDS011;27925;41.874;12.526;2023-02-28T01:28:42;5.70;;;3.38;;
40537;SDS011;27925;41.874;12.526;2023-02-28T01:31:09;5.50;;;3.38;;
40537;SDS011;27925;41.874;12.526;2023-02-28T01:33:35;5.38;;;3.22;;
40537;SDS011;27925;41.874;12.526;2023-02-28T01:36:03;7.63;;;3.03;;
40537;SDS011;27925;41.874;12.526;2023-02-28T01:38:30;5.95;;;3.13;;
40537;SDS011;27925;41.874;12.526;2023-02-28T01:40:56;4.97;;;3.38;;
40537;SDS011;27925;41.874;12.526;2023-02-28T01:43:24;5.55;;;3.63;;
40537;SDS011;27925;41.874;12.526;2023-02-28T01:45:54;4.75;;;3.00;;
40537;SDS011;27925;41.874;12.526;2023-02-28T01:48:23;5.80;;;3.30;;
40537;SDS011;27925;41.874;12.526;2023-02-28T01:50:56;5.50;;;3.55;;
40537;SDS011;27925;41.874;12.526;2023-02-28T01:53:26;7.18;;;3.63;;
40537;SDS011;27925;41.874;12.526;2023-02-28T01:55:57;5.80;;;3.60;;
40537;SDS011;27925;41.874;12.526;2023-02-28T01:58:23;5.40;;;3.67;;
40537;SDS011;27925;41.874;12.526;2023-02-28T02:00:49;5.60;;;3.65;;
40537;SDS011;27925;41.874;12.526;2023-02-28T02:03:16;7.15;;;3.45;;
40537;SDS011;27925;41.874;12.526;2023-02-28T02:05:44;6.15;;;3.38;;
40537;SDS011;27925;41.874;12.526;2023-02-28T02:08:15;5.55;;;3.80;;
40537;SDS011;27925;41.874;12.526;2023-02-28T02:10:44;6.47;;;3.40;;
40537;SDS011;27925;41.874;12.526;2023-02-28T02:35:31;5.38;;;3.30;;
40537;SDS011;27925;41.874;12.526;2023-02-28T02:46:19;5.97;;;3.45;;
40537;SDS011;27925;41.874;12.526;2023-02-28T02:48:47;6.05;;;3.63;;
40537;SDS011;27925;41.874;12.526;2023-02-28T02:51:16;5.78;;;3.60;;
40537;SDS011;27925;41.874;12.526;2023-02-28T02:54:30;5.20;;;3.33;;
40537;SDS011;27925;41.874;12.526;2023-02-28T02:56:32;5.65;;;3.63;;
40537;SDS011;27925;41.874;12.526;2023-02-28T02:59:01;5.25;;;3.47;;
40537;SDS011;27925;41.874;12.526;2023-02-28T03:01:29;5.35;;;3.30;;
40537;SDS011;27925;41.874;12.526;2023-02-28T03:03:58;5.13;;;3.13;;
40537;SDS011;27925;41.874;12.526;2023-02-28T03:09:56;4.70;;;3.20;;
40537;SDS011;27925;41.874;12.526;2023-02-28T03:12:23;5.35;;;3.20;;
40537;SDS011;27925;41.874;12.526;2023-02-28T03:18:15;7.50;;;3.78;;
40537;SDS011;27925;41.874;12.526;2023-02-28T03:26:19;5.18;;;3.38;;
40537;SDS011;27925;41.874;12.526;2023-02-28T03:32:03;5.57;;;3.25;;
40537;SDS011;27925;41.874;12.526;2023-02-28T03:34:36;5.10;;;3.50;;
40537;SDS011;27925;41.874;12.526;2023-02-28T03:37:14;4.57;;;3.20;;
40537;SDS011;27925;41.874;12.526;2023-02-28T03:39:45;6.15;;;3.10;;
40537;SDS011;27925;41.874;12.526;2023-02-28T03:42:14;6.32;;;3.17;;
40537;SDS011;27925;41.874;12.526;2023-02-28T03:47:22;6.35;;;3.10;;
40537;SDS011;27925;41.874;12.526;2023-02-28T03:49:54;5.78;;;3.20;;
40537;SDS011;27925;41.874;12.526;2023-02-28T03:52:28;6.57;;;3.90;;
40537;SDS011;27925;41.874;12.526;2023-02-28T03:55:01;6.90;;;3.47;;
40537;SDS011;27925;41.874;12.526;2023-02-28T04:00:15;5.93;;;3.08;;
40537;SDS011;27925;41.874;12.526;2023-02-28T04:02:44;5.57;;;3.08;;
40537;SDS011;27925;41.874;12.526;2023-02-28T04:05:10;5.45;;;3.20;;
40537;SDS011;27925;41.874;12.526;2023-02-28T04:07:36;5.40;;;2.83;;
40537;SDS011;27925;41.874;12.526;2023-02-28T04:10:03;5.85;;;2.90;;
40537;SDS011;27925;41.874;12.526;2023-02-28T04:12:29;6.53;;;3.08;;
40537;SDS011;27925;41.874;12.526;2023-02-28T04:14:55;6.15;;;2.80;;
40537;SDS011;27925;41.874;12.526;2023-02-28T04:17:21;5.88;;;2.67;;
40537;SDS011;27925;41.874;12.526;2023-02-28T04:19:46;7.53;;;2.78;;
40537;SDS011;27925;41.874;12.526;2023-02-28T04:22:12;8.15;;;3.00;;
40537;SDS011;27925;41.874;12.526;2023-02-28T04:24:38;5.10;;;2.67;;
40537;SDS011;27925;41.874;12.526;2023-02-28T04:27:06;9.30;;;2.78;;
40537;SDS011;27925;41.874;12.526;2023-02-28T04:29:33;4.47;;;2.40;;
40537;SDS011;27925;41.874;12.526;2023-02-28T04:31:59;4.47;;;2.70;;
40537;SDS011;27925;41.874;12.526;2023-02-28T04:34:26;4.88;;;2.55;;
40537;SDS011;27925;41.874;12.526;2023-02-28T04:36:55;6.70;;;2.72;;
40537;SDS011;27925;41.874;12.526;2023-02-28T04:39:21;6.18;;;2.90;;
40537;SDS011;27925;41.874;12.526;2023-02-28T04:41:48;5.75;;;2.58;;
40537;SDS011;27925;41.874;12.526;2023-02-28T04:44:15;4.05;;;2.60;;
40537;SDS011;27925;41.874;12.526;2023-02-28T04:46:41;3.85;;;2.42;;
40537;SDS011;27925;41.874;12.526;2023-02-28T04:49:10;5.80;;;2.72;;
40537;SDS011;27925;41.874;12.526;2023-02-28T04:51:37;4.93;;;2.60;;
40537;SDS011;27925;41.874;12.526;2023-02-28T04:54:03;7.80;;;3.05;;
40537;SDS011;27925;41.874;12.526;2023-02-28T04:56:28;6.32;;;2.83;;
40537;SDS011;27925;41.874;12.526;2023-02-28T04:58:54;5.20;;;2.95;;
40537;SDS011;27925;41.874;12.526;2023-02-28T05:03:50;6.05;;;3.63;;
40537;SDS011;27925;41.874;12.526;2023-02-28T05:06:17;4.88;;;2.80;;
40537;SDS011;27925;41.874;12.526;2023-02-28T05:08:44;6.05;;;2.85;;
40537;SDS011;27925;41.874;12.526;2023-02-28T05:11:17;5.65;;;2.75;;
40537;SDS011;27925;41.874;12.526;2023-02-28T05:13:48;5.57;;;2.85;;
40537;SDS011;27925;41.874;12.526;2023-02-28T05:16:14;3.92;;;2.60;;
40537;SDS011;27925;41.874;12.526;2023-02-28T05:18:40;12.27;;;3.35;;
40537;SDS011;27925;41.874;12.526;2023-02-28T05:21:12;4.85;;;2.92;;
40537;SDS011;27925;41.874;12.526;2023-02-28T05:23:44;4.15;;;2.53;;
40537;SDS011;27925;41.874;12.526;2023-02-28T05:26:10;5.47;;;2.70;;
40537;SDS011;27925;41.874;12.526;2023-02-28T05:28:36;7.40;;;2.72;;
40537;SDS011;27925;41.874;12.526;2023-02-28T05:31:01;6.65;;;3.03;;
40537;SDS011;27925;41.874;12.526;2023-02-28T05:33:27;5.07;;;2.38;;
40537;SDS011;27925;41.874;12.526;2023-02-28T05:35:53;5.22;;;2.60;;
40537;SDS011;27925;41.874;12.526;2023-02-28T05:38:18;5.10;;;2.45;;
40537;SDS011;27925;41.874;12.526;2023-02-28T05:40:44;4.63;;;2.45;;
40537;SDS011;27925;41.874;12.526;2023-02-28T05:43:10;5.50;;;2.33;;
40537;SDS011;27925;41.874;12.526;2023-02-28T05:45:37;3.85;;;2.20;;
40537;SDS011;27925;41.874;12.526;2023-02-28T05:48:02;5.07;;;2.50;;
40537;SDS011;27925;41.874;12.526;2023-02-28T05:50:28;8.05;;;2.50;;
40537;SDS011;27925;41.874;12.526;2023-02-28T05:52:54;6.90;;;2.83;;
40537;SDS011;27925;41.874;12.526;2023-02-28T05:55:19;8.38;;;3.53;;
40537;SDS011;27925;41.874;12.526;2023-02-28T05:57:45;7.10;;;3.25;;
40537;SDS011;27925;41.874;12.526;2023-02-28T06:00:11;5.93;;;2.50;;
40537;SDS011;27925;41.874;12.526;2023-02-28T06:02:39;5.90;;;3.00;;
40537;SDS011;27925;41.874;12.526;2023-02-28T06:05:07;8.77;;;3.05;;
40537;SDS011;27925;41.874;12.526;2023-02-28T06:07:40;5.60;;;3.22;;
40537;SDS011;27925;41.874;12.526;2023-02-28T06:10:06;7.85;;;3.53;;
40537;SDS011;27925;41.874;12.526;2023-02-28T06:12:33;6.68;;;2.80;;
40537;SDS011;27925;41.874;12.526;2023-02-28T06:14:58;6.20;;;2.58;;
40537;SDS011;27925;41.874;12.526;2023-02-28T06:17:24;6.43;;;2.92;;
40537;SDS011;27925;41.874;12.526;2023-02-28T06:19:50;7.57;;;2.60;;
40537;SDS011;27925;41.874;12.526;2023-02-28T06:22:15;6.68;;;2.80;;
40537;SDS011;27925;41.874;12.526;2023-02-28T06:24:41;6.28;;;3.20;;
40537;SDS011;27925;41.874;12.526;2023-02-28T06:27:07;6.57;;;2.90;;
40537;SDS011;27925;41.874;12.526;2023-02-28T06:29:33;5.03;;;2.92;;
40537;SDS011;27925;41.874;12.526;2023-02-28T06:32:00;4.88;;;2.67;;
40537;SDS011;27925;41.874;12.526;2023-02-28T06:34:26;6.15;;;3.00;;
40537;SDS011;27925;41.874;12.526;2023-02-28T06:36:52;6.22;;;2.80;;
40537;SDS011;27925;41.874;12.526;2023-02-28T06:39:18;5.55;;;3.00;;
40537;SDS011;27925;41.874;12.526;2023-02-28T06:41:44;5.57;;;3.40;;
40537;SDS011;27925;41.874;12.526;2023-02-28T06:44:14;6.65;;;3.00;;
40537;SDS011;27925;41.874;12.526;2023-02-28T06:46:42;5.65;;;3.10;;
40537;SDS011;27925;41.874;12.526;2023-02-28T06:49:08;5.32;;;3.13;;
40537;SDS011;27925;41.874;12.526;2023-02-28T06:51:35;7.32;;;3.35;;
40537;SDS011;27925;41.874;12.526;2023-02-28T06:54:06;7.10;;;3.25;;
40537;SDS011;27925;41.874;12.526;2023-02-28T06:56:35;9.65;;;3.97;;
40537;SDS011;27925;41.874;12.526;2023-02-28T06:59:01;8.93;;;3.72;;
40537;SDS011;27925;41.874;12.526;2023-02-28T07:01:26;10.10;;;3.47;;
40537;SDS011;27925;41.874;12.526;2023-02-28T07:03:54;7.53;;;3.67;;
40537;SDS011;27925;41.874;12.526;2023-02-28T07:06:23;8.25;;;3.83;;
40537;SDS011;27925;41.874;12.526;2023-02-28T07:08:50;14.93;;;4.28;;
40537;SDS011;27925;41.874;12.526;2023-02-28T07:11:17;8.48;;;4.13;;
40537;SDS011;27925;41.874;12.526;2023-02-28T07:13:43;13.35;;;4.45;;
40537;SDS011;27925;41.874;12.526;2023-02-28T07:16:10;10.80;;;4.43;;
40537;SDS011;27925;41.874;12.526;2023-02-28T07:18:37;8.55;;;4.63;;
40537;SDS011;27925;41.874;12.526;2023-02-28T07:21:03;7.45;;;4.88;;
40537;SDS011;27925;41.874;12.526;2023-02-28T07:23:30;10.25;;;4.90;;
40537;SDS011;27925;41.874;12.526;2023-02-28T07:25:56;9.68;;;4.40;;
40537;SDS011;27925;41.874;12.526;2023-02-28T07:28:22;6.90;;;4.03;;
40537;SDS011;27925;41.874;12.526;2023-02-28T07:30:48;10.35;;;3.78;;
40537;SDS011;27925;41.874;12.526;2023-02-28T07:33:14;8.90;;;4.20;;
40537;SDS011;27925;41.874;12.526;2023-02-28T07:35:39;5.43;;;3.30;;
40537;SDS011;27925;41.874;12.526;2023-02-28T07:38:05;9.57;;;3.40;;
40537;SDS011;27925;41.874;12.526;2023-02-28T07:40:33;8.82;;;3.63;;
40537;SDS011;27925;41.874;12.526;2023-02-28T07:43:00;8.05;;;3.58;;
40537;SDS011;27925;41.874;12.526;2023-02-28T07:45:26;16.33;;;3.42;;
40537;SDS011;27925;41.874;12.526;2023-02-28T07:47:53;6.18;;;3.20;;
40537;SDS011;27925;41.874;12.526;2023-02-28T07:50:20;8.73;;;3.45;;
40537;SDS011;27925;41.874;12.526;2023-02-28T07:52:46;5.75;;;3.10;;
40537;SDS011;27925;41.874;12.526;2023-02-28T07:55:12;8.40;;;3.42;;
40537;SDS011;27925;41.874;12.526;2023-02-28T07:57:38;11.48;;;3.15;;
40537;SDS011;27925;41.874;12.526;2023-02-28T08:00:06;8.80;;;3.85;;
40537;SDS011;27925;41.874;12.526;2023-02-28T08:02:34;7.22;;;3.53;;
40537;SDS011;27925;41.874;12.526;2023-02-28T08:05:00;10.98;;;4.28;;
40537;SDS011;27925;41.874;12.526;2023-02-28T08:07:26;8.02;;;3.80;;
40537;SDS011;27925;41.874;12.526;2023-02-28T08:09:52;11.18;;;4.22;;
40537;SDS011;27925;41.874;12.526;2023-02-28T08:12:18;10.27;;;3.92;;
40537;SDS011;27925;41.874;12.526;2023-02-28T08:14:44;8.40;;;3.60;;
40537;SDS011;27925;41.874;12.526;2023-02-28T08:17:10;9.18;;;3.78;;
40537;SDS011;27925;41.874;12.526;2023-02-28T08:19:37;10.18;;;3.70;;
40537;SDS011;27925;41.874;12.526;2023-02-28T08:22:02;9.10;;;3.92;;
40537;SDS011;27925;41.874;12.526;2023-02-28T08:24:28;8.98;;;4.60;;
40537;SDS011;27925;41.874;12.526;2023-02-28T08:26:54;7.90;;;4.40;;
40537;SDS011;27925;41.874;12.526;2023-02-28T08:29:20;12.23;;;4.15;;
40537;SDS011;27925;41.874;12.526;2023-02-28T08:31:46;7.95;;;3.47;;
40537;SDS011;27925;41.874;12.526;2023-02-28T08:34:13;10.57;;;3.95;;
40537;SDS011;27925;41.874;12.526;2023-02-28T08:36:40;8.38;;;4.40;;
40537;SDS011;27925;41.874;12.526;2023-02-28T08:39:08;10.75;;;4.05;;
40537;SDS011;27925;41.874;12.526;2023-02-28T08:41:34;12.27;;;3.88;;
40537;SDS011;27925;41.874;12.526;2023-02-28T08:44:00;8.70;;;3.92;;
40537;SDS011;27925;41.874;12.526;2023-02-28T08:46:26;9.27;;;3.10;;
40537;SDS011;27925;41.874;12.526;2023-02-28T08:48:53;6.45;;;2.78;;
40537;SDS011;27925;41.874;12.526;2023-02-28T08:51:20;7.47;;;2.67;;
40537;SDS011;27925;41.874;12.526;2023-02-28T08:53:51;5.20;;;2.90;;
40537;SDS011;27925;41.874;12.526;2023-02-28T08:56:18;6.45;;;2.50;;
40537;SDS011;27925;41.874;12.526;2023-02-28T08:58:44;8.45;;;2.65;;
40537;SDS011;27925;41.874;12.526;2023-02-28T09:03:44;7.57;;;2.37;;
40537;SDS011;27925;41.874;12.526;2023-02-28T09:06:11;5.00;;;2.60;;
40537;SDS011;27925;41.874;12.526;2023-02-28T09:08:38;8.65;;;4.25;;
40537;SDS011;27925;41.874;12.526;2023-02-28T09:11:04;4.65;;;1.92;;
40537;SDS011;27925;41.874;12.526;2023-02-28T09:13:30;5.20;;;2.15;;
40537;SDS011;27925;41.874;12.526;2023-02-28T09:15:57;6.40;;;2.38;;
40537;SDS011;27925;41.874;12.526;2023-02-28T09:18:24;7.30;;;1.95;;
40537;SDS011;27925;41.874;12.526;2023-02-28T09:20:51;5.95;;;2.25;;
40537;SDS011;27925;41.874;12.526;2023-02-28T09:23:17;7.20;;;2.17;;
40537;SDS011;27925;41.874;12.526;2023-02-28T09:25:48;6.65;;;2.30;;
40537;SDS011;27925;41.874;12.526;2023-02-28T09:28:16;5.07;;;2.10;;
40537;SDS011;27925;41.874;12.526;2023-02-28T09:30:42;4.78;;;2.17;;
40537;SDS011;27925;41.874;12.526;2023-02-28T09:33:10;3.90;;;2.00;;
40537;SDS011;27925;41.874;12.526;2023-02-28T09:35:36;6.53;;;2.72;;
40537;SDS011;27925;41.874;12.526;2023-02-28T09:38:02;4.93;;;2.97;;
40537;SDS011;27925;41.874;12.526;2023-02-28T09:40:29;5.63;;;2.00;;
40537;SDS011;27925;41.874;12.526;2023-02-28T09:42:56;5.93;;;2.08;;
40537;SDS011;27925;41.874;12.526;2023-02-28T09:45:26;5.40;;;2.28;;
40537;SDS011;27925;41.874;12.526;2023-02-28T09:48:18;5.53;;;2.40;;
40537;SDS011;27925;41.874;12.526;2023-02-28T09:50:51;8.10;;;2.42;;
40537;SDS011;27925;41.874;12.526;2023-02-28T09:53:22;4.72;;;2.13;;
40537;SDS011;27925;41.874;12.526;2023-02-28T09:56:15;10.05;;;2.30;;
40537;SDS011;27925;41.874;12.526;2023-02-28T09:58:48;5.57;;;1.95;;
40537;SDS011;27925;41.874;12.526;2023-02-28T10:06:21;5.25;;;1.63;;
40537;SDS011;27925;41.874;12.526;2023-02-28T10:08:52;4.45;;;1.83;;
40537;SDS011;27925;41.874;12.526;2023-02-28T10:11:26;3.60;;;1.75;;
40537;SDS011;27925;41.874;12.526;2023-02-28T10:13:59;6.25;;;1.80;;
40537;SDS011;27925;41.874;12.526;2023-02-28T10:16:36;3.83;;;1.70;;
40537;SDS011;27925;41.874;12.526;2023-02-28T10:24:26;5.15;;;1.80;;
40537;SDS011;27925;41.874;12.526;2023-02-28T10:26:53;5.07;;;2.00;;
40537;SDS011;27925;41.874;12.526;2023-02-28T10:29:25;6.93;;;1.63;;
40537;SDS011;27925;41.874;12.526;2023-02-28T10:31:51;5.75;;;1.70;;
40537;SDS011;27925;41.874;12.526;2023-02-28T10:34:17;4.32;;;1.75;;
40537;SDS011;27925;41.874;12.526;2023-02-28T10:36:42;7.18;;;1.65;;
40537;SDS011;27925;41.874;12.526;2023-02-28T10:39:43;3.38;;;1.67;;
40537;SDS011;27925;41.874;12.526;2023-02-28T10:42:17;4.78;;;1.85;;
40537;SDS011;27925;41.874;12.526;2023-02-28T10:47:42;7.32;;;2.33;;
40537;SDS011;27925;41.874;12.526;2023-02-28T10:50:29;7.63;;;2.15;;
40537;SDS011;27925;41.874;12.526;2023-02-28T10:53:32;4.90;;;1.90;;
40537;SDS011;27925;41.874;12.526;2023-02-28T10:56:01;6.63;;;2.20;;
40537;SDS011;27925;41.874;12.526;2023-02-28T11:01:10;7.75;;;2.40;;
40537;SDS011;27925;41.874;12.526;2023-02-28T11:03:49;11.13;;;2.30;;
40537;SDS011;27925;41.874;12.526;2023-02-28T11:06:19;5.07;;;1.92;;
40537;SDS011;27925;41.874;12.526;2023-02-28T11:08:58;6.15;;;2.00;;
40537;SDS011;27925;41.874;12.526;2023-02-28T11:11:45;4.70;;;1.80;;
40537;SDS011;27925;41.874;12.526;2023-02-28T11:14:17;6.80;;;2.08;;
40537;SDS011;27925;41.874;12.526;2023-02-28T11:16:50;7.22;;;1.85;;
40537;SDS011;27925;41.874;12.526;2023-02-28T11:19:34;5.13;;;1.70;;
40537;SDS011;27925;41.874;12.526;2023-02-28T11:22:05;8.63;;;2.20;;
40537;SDS011;27925;41.874;12.526;2023-02-28T11:24:33;6.68;;;2.30;;
40537;SDS011;27925;41.874;12.526;2023-02-28T11:27:02;4.50;;;1.70;;
40537;SDS011;27925;41.874;12.526;2023-02-28T11:29:29;6.47;;;1.73;;
40537;SDS011;27925;41.874;12.526;2023-02-28T11:32:10;8.13;;;2.80;;
40537;SDS011;27925;41.874;12.526;2023-02-28T11:34:37;4.63;;;1.75;;
40537;SDS011;27925;41.874;12.526;2023-02-28T11:37:05;11.35;;;3.60;;
40537;SDS011;27925;41.874;12.526;2023-02-28T11:39:36;3.35;;;1.98;;
40537;SDS011;27925;41.874;12.526;2023-02-28T11:45:07;4.38;;;2.00;;
40537;SDS011;27925;41.874;12.526;2023-02-28T11:50:45;9.43;;;2.70;;
40537;SDS011;27925;41.874;12.526;2023-02-28T12:10:57;7.05;;;2.35;;
40537;SDS011;27925;41.874;12.526;2023-02-28T12:13:39;8.73;;;2.42;;
40537;SDS011;27925;41.874;12.526;2023-02-28T12:21:29;7.10;;;1.60;;
40537;SDS011;27925;41.874;12.526;2023-02-28T12:26:51;10.02;;;2.00;;
40537;SDS011;27925;41.874;12.526;2023-02-28T12:29:23;5.63;;;1.85;;
40537;SDS011;27925;41.874;12.526;2023-02-28T12:31:56;8.32;;;2.55;;
40537;SDS011;27925;41.874;12.526;2023-02-28T12:34:49;10.00;;;2.20;;
40537;SDS011;27925;41.874;12.526;2023-02-28T12:40:00;9.50;;;2.22;;
40537;SDS011;27925;41.874;12.526;2023-02-28T12:42:36;10.73;;;2.63;;
40537;SDS011;27925;41.874;12.526;2023-02-28T12:45:30;5.95;;;1.60;;
40537;SDS011;27925;41.874;12.526;2023-02-28T12:47:58;15.07;;;2.55;;
40537;SDS011;27925;41.874;12.526;2023-02-28T12:50:28;7.95;;;2.72;;
40537;SDS011;27925;41.874;12.526;2023-02-28T13:00:55;10.05;;;1.70;;
40537;SDS011;27925;41.874;12.526;2023-02-28T13:03:56;9.88;;;1.83;;
40537;SDS011;27925;41.874;12.526;2023-02-28T13:09:35;8.30;;;1.80;;
40537;SDS011;27925;41.874;12.526;2023-02-28T13:12:01;6.97;;;2.45;;
40537;SDS011;27925;41.874;12.526;2023-02-28T13:14:39;13.18;;;2.70;;
40537;SDS011;27925;41.874;12.526;2023-02-28T13:19:46;10.23;;;2.28;;
40537;SDS011;27925;41.874;12.526;2023-02-28T13:27:47;8.05;;;2.28;;
40537;SDS011;27925;41.874;12.526;2023-02-28T13:38:43;10.27;;;2.53;;
40537;SDS011;27925;41.874;12.526;2023-02-28T13:46:28;7.50;;;1.85;;
40537;SDS011;27925;41.874;12.526;2023-02-28T13:48:54;9.57;;;2.60;;
40537;SDS011;27925;41.874;12.526;2023-02-28T13:57:54;12.07;;;3.53;;
40537;SDS011;27925;41.874;12.526;2023-02-28T14:03:05;10.38;;;2.30;;
40537;SDS011;27925;41.874;12.526;2023-02-28T14:05:40;15.00;;;2.75;;
40537;SDS011;27925;41.874;12.526;2023-02-28T14:08:18;10.70;;;2.33;;
40537;SDS011;27925;41.874;12.526;2023-02-28T14:10:47;11.18;;;2.15;;
40537;SDS011;27925;41.874;12.526;2023-02-28T14:16:10;10.27;;;1.98;;
40537;SDS011;27925;41.874;12.526;2023-02-28T14:18:40;11.98;;;2.15;;
40537;SDS011;27925;41.874;12.526;2023-02-28T14:21:14;12.20;;;2.45;;
40537;SDS011;27925;41.874;12.526;2023-02-28T14:37:10;11.70;;;2.50;;
40537;SDS011;27925;41.874;12.526;2023-02-28T14:39:41;10.00;;;2.88;;
40537;SDS011;27925;41.874;12.526;2023-02-28T14:44:55;9.93;;;2.13;;
40537;SDS011;27925;41.874;12.526;2023-02-28T14:47:25;9.65;;;2.17;;
40537;SDS011;27925;41.874;12.526;2023-02-28T14:49:55;15.38;;;2.78;;
40537;SDS011;27925;41.874;12.526;2023-02-28T14:52:26;8.25;;;2.50;;
40537;SDS011;27925;41.874;12.526;2023-02-28T14:55:04;13.10;;;2.47;;
40537;SDS011;27925;41.874;12.526;2023-02-28T14:57:40;9.98;;;1.90;;
40537;SDS011;27925;41.874;12.526;2023-02-28T15:00:17;14.90;;;2.53;;
40537;SDS011;27925;41.874;12.526;2023-02-28T15:02:54;9.20;;;2.60;;
40537;SDS011;27925;41.874;12.526;2023-02-28T15:05:31;13.15;;;2.70;;
40537;SDS011;27925;41.874;12.526;2023-02-28T15:08:11;11.30;;;2.88;;
40537;SDS011;27925;41.874;12.526;2023-02-28T15:10:39;10.00;;;2.60;;
40537;SDS011;27925;41.874;12.526;2023-02-28T15:13:13;10.45;;;2.78;;
40537;SDS011;27925;41.874;12.526;2023-02-28T15:15:45;6.32;;;2.20;;
40537;SDS011;27925;41.874;12.526;2023-02-28T15:18:22;6.63;;;2.60;;
40537;SDS011;27925;41.874;12.526;2023-02-28T15:20:49;10.30;;;2.80;;
40537;SDS011;27925;41.874;12.526;2023-02-28T15:23:16;10.05;;;2.97;;
40537;SDS011;27925;41.874;12.526;2023-02-28T15:25:44;10.75;;;2.97;;
40537;SDS011;27925;41.874;12.526;2023-02-28T15:28:14;12.10;;;3.33;;
40537;SDS011;27925;41.874;12.526;2023-02-28T15:30:57;14.35;;;3.10;;
40537;SDS011;27925;41.874;12.526;2023-02-28T15:33:28;14.10;;;3.13;;
40537;SDS011;27925;41.874;12.526;2023-02-28T15:36:05;14.45;;;3.60;;
40537;SDS011;27925;41.874;12.526;2023-02-28T15:38:38;10.23;;;3.00;;
40537;SDS011;27925;41.874;12.526;2023-02-28T15:41:03;9.68;;;2.67;;
40537;SDS011;27925;41.874;12.526;2023-02-28T15:46:04;15.70;;;3.42;;
40537;SDS011;27925;41.874;12.526;2023-02-28T15:48:51;9.65;;;2.90;;
40537;SDS011;27925;41.874;12.526;2023-02-28T15:51:20;11.48;;;2.80;;
40537;SDS011;27925;41.874;12.526;2023-02-28T15:53:59;8.40;;;2.67;;
40537;SDS011;27925;41.874;12.526;2023-02-28T15:56:28;11.57;;;2.85;;
40537;SDS011;27925;41.874;12.526;2023-02-28T15:58:56;9.88;;;3.42;;
40537;SDS011;27925;41.874;12.526;2023-02-28T16:01:28;6.45;;;2.75;;
40537;SDS011;27925;41.874;12.526;2023-02-28T16:03:56;6.88;;;2.70;;
40537;SDS011;27925;41.874;12.526;2023-02-28T16:09:23;8.50;;;2.50;;
40537;SDS011;27925;41.874;12.526;2023-02-28T16:11:49;9.57;;;3.05;;
40537;SDS011;27925;41.874;12.526;2023-02-28T16:14:22;7.70;;;2.95;;
40537;SDS011;27925;41.874;12.526;2023-02-28T16:16:50;9.80;;;3.17;;
40537;SDS011;27925;41.874;12.526;2023-02-28T16:19:18;15.02;;;3.42;;
40537;SDS011;27925;41.874;12.526;2023-02-28T16:21:45;7.30;;;2.80;;
40537;SDS011;27925;41.874;12.526;2023-02-28T16:24:11;7.07;;;2.75;;
40537;SDS011;27925;41.874;12.526;2023-02-28T16:26:41;10.70;;;2.70;;
40537;SDS011;27925;41.874;12.526;2023-02-28T16:29:12;8.57;;;2.40;;
40537;SDS011;27925;41.874;12.526;2023-02-28T16:31:49;7.53;;;2.28;;
40537;SDS011;27925;41.874;12.526;2023-02-28T16:34:15;7.15;;;2.67;;
40537;SDS011;27925;41.874;12.526;2023-02-28T16:36:40;8.35;;;2.88;;
40537;SDS011;27925;41.874;12.526;2023-02-28T16:39:06;6.63;;;2.17;;
40537;SDS011;27925;41.874;12.526;2023-02-28T16:41:32;5.25;;;1.85;;
40537;SDS011;27925;41.874;12.526;2023-02-28T16:43:59;6.45;;;2.05;;
40537;SDS011;27925;41.874;12.526;2023-02-28T16:46:34;6.20;;;2.13;;
40537;SDS011;27925;41.874;12.526;2023-02-28T16:49:01;6.93;;;1.92;;
40537;SDS011;27925;41.874;12.526;2023-02-28T16:51:26;7.13;;;2.03;;
40537;SDS011;27925;41.874;12.526;2023-02-28T16:53:52;8.38;;;2.38;;
40537;SDS011;27925;41.874;12.526;2023-02-28T16:56:19;5.75;;;1.83;;
40537;SDS011;27925;41.874;12.526;2023-02-28T16:58:47;8.80;;;2.03;;
40537;SDS011;27925;41.874;12.526;2023-02-28T17:01:13;8.52;;;2.60;;
40537;SDS011;27925;41.874;12.526;2023-02-28T17:03:39;5.43;;;1.98;;
40537;SDS011;27925;41.874;12.526;2023-02-28T17:06:06;8.40;;;2.20;;
40537;SDS011;27925;41.874;12.526;2023-02-28T17:08:41;5.57;;;2.30;;
40537;SDS011;27925;41.874;12.526;2023-02-28T17:11:07;5.70;;;2.25;;
40537;SDS011;27925;41.874;12.526;2023-02-28T17:13:34;5.53;;;2.22;;
40537;SDS011;27925;41.874;12.526;2023-02-28T17:15:59;3.47;;;2.10;;
40537;SDS011;27925;41.874;12.526;2023-02-28T17:18:25;5.32;;;2.22;;
40537;SDS011;27925;41.874;12.526;2023-02-28T17:20:53;6.30;;;2.10;;
40537;SDS011;27925;41.874;12.526;2023-02-28T17:23:19;6.32;;;2.33;;
40537;SDS011;27925;41.874;12.526;2023-02-28T17:25:45;8.50;;;2.70;;
40537;SDS011;27925;41.874;12.526;2023-02-28T17:28:18;2.93;;;1.40;;
40537;SDS011;27925;41.874;12.526;2023-02-28T17:30:47;5.40;;;2.25;;
40537;SDS011;27925;41.874;12.526;2023-02-28T17:33:13;7.50;;;2.80;;
40537;SDS011;27925;41.874;12.526;2023-02-28T17:35:40;5.50;;;2.67;;
40537;SDS011;27925;41.874;12.526;2023-02-28T17:38:12;6.82;;;2.22;;
40537;SDS011;27925;41.874;12.526;2023-02-28T17:40:43;4.63;;;2.63;;
40537;SDS011;27925;41.874;12.526;2023-02-28T17:43:09;5.30;;;2.00;;
40537;SDS011;27925;41.874;12.526;2023-02-28T17:45:35;5.20;;;2.50;;